sensor_id;sensor_type;location;lat;lon;timestamp;temperature;humidity
5200;DHT22;2619;47.868;11.892;2022-12-17T00:02:26;-1.00;99.90
5200;DHT22;2619;47.868;11.892;2022-12-17T00:05:10;-1.00;99.90
5200;DHT22;2619;47.868;11.892;2022-12-17T00:07:56;-1.00;99.90
5200;DHT22;2619;47.868;11.892;2022-12-17T00:10:42;-1.00;99.90
5200;DHT22;2619;47.868;11.892;2022-12-17T00:13:26;-1.00;99.90
5200;DHT22;2619;47.868;11.892;2022-12-17T00:16:10;-1.00;99.90
5200;DHT22;2619;47.868;11.892;2022-12-17T00:18:54;-1.00;99.90
5200;DHT22;2619;47.868;11.892;2022-12-17T00:21:38;-1.00;99.90
5200;DHT22;2619;47.868;11.892;2022-12-17T00:24:22;-1.00;99.90
5200;DHT22;2619;47.868;11.892;2022-12-17T00:27:07;-1.00;99.90
5200;DHT22;2619;47.868;11.892;2022-12-17T00:29:51;-1.00;99.90
5200;DHT22;2619;47.868;11.892;2022-12-17T00:32:35;-1.00;99.90
5200;DHT22;2619;47.868;11.892;2022-12-17T00:35:19;-1.00;99.90
5200;DHT22;2619;47.868;11.892;2022-12-17T00:38:03;-1.00;99.90
5200;DHT22;2619;47.868;11.892;2022-12-17T00:40:53;-1.00;99.90
5200;DHT22;2619;47.868;11.892;2022-12-17T00:43:37;-1.00;99.90
5200;DHT22;2619;47.868;11.892;2022-12-17T00:46:21;-1.00;99.90
5200;DHT22;2619;47.868;11.892;2022-12-17T00:52:32;-1.00;99.90
5200;DHT22;2619;47.868;11.892;2022-12-17T00:55:16;-1.00;99.90
5200;DHT22;2619;47.868;11.892;2022-12-17T00:58:17;-1.00;99.90
5200;DHT22;2619;47.868;11.892;2022-12-17T01:01:02;-1.10;99.90
5200;DHT22;2619;47.868;11.892;2022-12-17T01:03:46;-1.10;99.90
5200;DHT22;2619;47.868;11.892;2022-12-17T01:06:29;-1.20;99.90
5200;DHT22;2619;47.868;11.892;2022-12-17T01:09:13;-1.20;99.90
5200;DHT22;2619;47.868;11.892;2022-12-17T01:11:58;-1.20;99.90
5200;DHT22;2619;47.868;11.892;2022-12-17T01:14:42;-1.20;99.90
5200;DHT22;2619;47.868;11.892;2022-12-17T01:17:26;-1.20;99.90
5200;DHT22;2619;47.868;11.892;2022-12-17T01:20:10;-1.20;99.90
5200;DHT22;2619;47.868;11.892;2022-12-17T01:22:54;-1.30;99.90
5200;DHT22;2619;47.868;11.892;2022-12-17T01:25:38;-1.30;99.90
5200;DHT22;2619;47.868;11.892;2022-12-17T01:28:23;-1.30;99.90
5200;DHT22;2619;47.868;11.892;2022-12-17T01:31:08;-1.30;99.90
5200;DHT22;2619;47.868;11.892;2022-12-17T01:33:52;-1.30;99.90
5200;DHT22;2619;47.868;11.892;2022-12-17T01:36:47;-1.30;99.90
5200;DHT22;2619;47.868;11.892;2022-12-17T01:39:32;-1.30;99.90
5200;DHT22;2619;47.868;11.892;2022-12-17T01:42:16;-1.30;99.90
5200;DHT22;2619;47.868;11.892;2022-12-17T01:45:01;-1.30;99.90
5200;DHT22;2619;47.868;11.892;2022-12-17T01:47:52;-1.30;99.90
5200;DHT22;2619;47.868;11.892;2022-12-17T01:50:40;-1.30;99.90
5200;DHT22;2619;47.868;11.892;2022-12-17T01:53:34;-1.30;99.90
5200;DHT22;2619;47.868;11.892;2022-12-17T01:56:20;-1.30;99.90
5200;DHT22;2619;47.868;11.892;2022-12-17T01:59:07;-1.20;99.90
5200;DHT22;2619;47.868;11.892;2022-12-17T02:01:52;-1.20;99.90
5200;DHT22;2619;47.868;11.892;2022-12-17T02:04:36;-1.20;99.90
5200;DHT22;2619;47.868;11.892;2022-12-17T02:10:31;-1.10;99.90
5200;DHT22;2619;47.868;11.892;2022-12-17T02:13:20;-1.10;99.90
5200;DHT22;2619;47.868;11.892;2022-12-17T02:16:24;-1.10;99.90
5200;DHT22;2619;47.868;11.892;2022-12-17T02:19:18;-1.10;99.90
5200;DHT22;2619;47.868;11.892;2022-12-17T02:22:18;-1.10;99.90
5200;DHT22;2619;47.868;11.892;2022-12-17T02:25:15;-1.10;99.90
5200;DHT22;2619;47.868;11.892;2022-12-17T02:28:01;-1.20;99.90
5200;DHT22;2619;47.868;11.892;2022-12-17T02:30:45;-1.10;99.90
5200;DHT22;2619;47.868;11.892;2022-12-17T02:33:30;-1.10;99.90
5200;DHT22;2619;47.868;11.892;2022-12-17T02:36:15;-1.10;99.90
5200;DHT22;2619;47.868;11.892;2022-12-17T02:38:59;-1.10;99.90
5200;DHT22;2619;47.868;11.892;2022-12-17T02:41:46;-1.10;99.90
5200;DHT22;2619;47.868;11.892;2022-12-17T02:44:42;-1.10;99.90
5200;DHT22;2619;47.868;11.892;2022-12-17T02:47:27;-1.10;99.90
5200;DHT22;2619;47.868;11.892;2022-12-17T02:50:12;-1.10;99.90
5200;DHT22;2619;47.868;11.892;2022-12-17T02:52:59;-1.10;99.90
5200;DHT22;2619;47.868;11.892;2022-12-17T02:55:43;-1.10;99.90
5200;DHT22;2619;47.868;11.892;2022-12-17T02:58:27;-1.10;99.90
5200;DHT22;2619;47.868;11.892;2022-12-17T03:01:11;-1.10;99.90
5200;DHT22;2619;47.868;11.892;2022-12-17T03:03:56;-1.10;99.90
5200;DHT22;2619;47.868;11.892;2022-12-17T03:06:40;-1.00;99.90
5200;DHT22;2619;47.868;11.892;2022-12-17T03:09:24;-1.00;99.90
5200;DHT22;2619;47.868;11.892;2022-12-17T03:12:08;-0.90;99.90
5200;DHT22;2619;47.868;11.892;2022-12-17T03:14:52;-1.00;99.90
5200;DHT22;2619;47.868;11.892;2022-12-17T03:17:36;-0.90;99.90
5200;DHT22;2619;47.868;11.892;2022-12-17T03:20:20;-0.90;99.90
5200;DHT22;2619;47.868;11.892;2022-12-17T03:23:08;-0.90;99.90
5200;DHT22;2619;47.868;11.892;2022-12-17T03:25:53;-0.90;99.90
5200;DHT22;2619;47.868;11.892;2022-12-17T03:28:57;-0.90;99.90
5200;DHT22;2619;47.868;11.892;2022-12-17T03:31:41;-0.90;99.90
5200;DHT22;2619;47.868;11.892;2022-12-17T03:34:25;-0.90;99.90
5200;DHT22;2619;47.868;11.892;2022-12-17T03:37:09;-0.90;99.90
5200;DHT22;2619;47.868;11.892;2022-12-17T03:39:53;-0.90;99.90
5200;DHT22;2619;47.868;11.892;2022-12-17T03:42:37;-0.90;99.90
5200;DHT22;2619;47.868;11.892;2022-12-17T03:45:21;-1.00;99.90
5200;DHT22;2619;47.868;11.892;2022-12-17T03:48:13;-0.90;99.90
5200;DHT22;2619;47.868;11.892;2022-12-17T03:50:58;-0.90;99.90
5200;DHT22;2619;47.868;11.892;2022-12-17T03:53:42;-0.90;99.90
5200;DHT22;2619;47.868;11.892;2022-12-17T03:56:27;-0.90;99.90
5200;DHT22;2619;47.868;11.892;2022-12-17T03:59:11;-0.90;99.90
5200;DHT22;2619;47.868;11.892;2022-12-17T04:01:56;-1.00;99.90
5200;DHT22;2619;47.868;11.892;2022-12-17T04:04:40;-1.00;99.90
5200;DHT22;2619;47.868;11.892;2022-12-17T04:07:24;-1.00;99.90
5200;DHT22;2619;47.868;11.892;2022-12-17T04:10:09;-1.00;99.90
5200;DHT22;2619;47.868;11.892;2022-12-17T04:12:53;-0.90;99.90
5200;DHT22;2619;47.868;11.892;2022-12-17T04:15:37;-0.90;99.90
5200;DHT22;2619;47.868;11.892;2022-12-17T04:18:21;-0.90;99.90
5200;DHT22;2619;47.868;11.892;2022-12-17T04:21:05;-0.90;99.90
5200;DHT22;2619;47.868;11.892;2022-12-17T04:23:49;-1.00;99.90
5200;DHT22;2619;47.868;11.892;2022-12-17T04:26:33;-0.90;99.90
5200;DHT22;2619;47.868;11.892;2022-12-17T04:29:17;-1.00;99.90
5200;DHT22;2619;47.868;11.892;2022-12-17T04:32:02;-1.00;99.90
5200;DHT22;2619;47.868;11.892;2022-12-17T04:34:46;-1.00;99.90
5200;DHT22;2619;47.868;11.892;2022-12-17T04:37:30;-0.90;99.90
5200;DHT22;2619;47.868;11.892;2022-12-17T04:40:14;-1.00;99.90
5200;DHT22;2619;47.868;11.892;2022-12-17T04:43:07;-1.00;99.90
5200;DHT22;2619;47.868;11.892;2022-12-17T04:45:52;-1.00;99.90
5200;DHT22;2619;47.868;11.892;2022-12-17T04:48:36;-1.00;99.90
5200;DHT22;2619;47.868;11.892;2022-12-17T04:51:20;-1.10;99.90
5200;DHT22;2619;47.868;11.892;2022-12-17T04:54:04;-1.20;99.90
5200;DHT22;2619;47.868;11.892;2022-12-17T04:56:52;-1.30;99.90
5200;DHT22;2619;47.868;11.892;2022-12-17T04:59:36;-1.40;99.90
5200;DHT22;2619;47.868;11.892;2022-12-17T05:02:20;-1.40;99.90
5200;DHT22;2619;47.868;11.892;2022-12-17T05:05:04;-1.50;99.90
5200;DHT22;2619;47.868;11.892;2022-12-17T05:07:55;-1.50;99.90
5200;DHT22;2619;47.868;11.892;2022-12-17T05:10:40;-1.60;99.90
5200;DHT22;2619;47.868;11.892;2022-12-17T05:13:25;-1.50;99.90
5200;DHT22;2619;47.868;11.892;2022-12-17T05:16:09;-1.60;99.90
5200;DHT22;2619;47.868;11.892;2022-12-17T05:18:53;-1.40;99.90
5200;DHT22;2619;47.868;11.892;2022-12-17T05:21:37;-1.40;99.90
5200;DHT22;2619;47.868;11.892;2022-12-17T05:24:21;-1.40;99.90
5200;DHT22;2619;47.868;11.892;2022-12-17T05:27:05;-1.40;99.90
5200;DHT22;2619;47.868;11.892;2022-12-17T05:29:49;-1.40;99.90
5200;DHT22;2619;47.868;11.892;2022-12-17T05:32:33;-1.40;99.90
5200;DHT22;2619;47.868;11.892;2022-12-17T05:35:18;-1.40;99.90
5200;DHT22;2619;47.868;11.892;2022-12-17T05:38:06;-1.40;99.90
5200;DHT22;2619;47.868;11.892;2022-12-17T05:40:51;-1.40;99.90
5200;DHT22;2619;47.868;11.892;2022-12-17T05:43:38;-1.40;99.90
5200;DHT22;2619;47.868;11.892;2022-12-17T05:46:22;-1.30;99.90
5200;DHT22;2619;47.868;11.892;2022-12-17T05:49:06;-1.30;99.90
5200;DHT22;2619;47.868;11.892;2022-12-17T05:51:50;-1.30;99.90
5200;DHT22;2619;47.868;11.892;2022-12-17T05:54:34;-1.30;99.90
5200;DHT22;2619;47.868;11.892;2022-12-17T05:57:18;-1.20;99.90
5200;DHT22;2619;47.868;11.892;2022-12-17T06:00:03;-1.20;99.90
5200;DHT22;2619;47.868;11.892;2022-12-17T06:02:47;-1.20;99.90
5200;DHT22;2619;47.868;11.892;2022-12-17T06:05:31;-1.30;99.90
5200;DHT22;2619;47.868;11.892;2022-12-17T06:08:15;-1.30;99.90
5200;DHT22;2619;47.868;11.892;2022-12-17T06:10:59;-1.30;99.90
5200;DHT22;2619;47.868;11.892;2022-12-17T06:13:44;-1.40;99.90
5200;DHT22;2619;47.868;11.892;2022-12-17T06:16:29;-1.40;99.90
5200;DHT22;2619;47.868;11.892;2022-12-17T06:19:13;-1.50;99.90
5200;DHT22;2619;47.868;11.892;2022-12-17T06:21:57;-1.60;99.90
5200;DHT22;2619;47.868;11.892;2022-12-17T06:24:41;-1.60;99.90
5200;DHT22;2619;47.868;11.892;2022-12-17T06:27:26;-1.70;99.90
5200;DHT22;2619;47.868;11.892;2022-12-17T06:30:10;-1.80;99.90
5200;DHT22;2619;47.868;11.892;2022-12-17T06:33:05;-1.80;99.90
5200;DHT22;2619;47.868;11.892;2022-12-17T06:35:52;-1.80;99.90
5200;DHT22;2619;47.868;11.892;2022-12-17T06:38:36;-1.80;99.90
5200;DHT22;2619;47.868;11.892;2022-12-17T06:41:20;-1.90;99.90
5200;DHT22;2619;47.868;11.892;2022-12-17T06:44:04;-2.00;99.90
5200;DHT22;2619;47.868;11.892;2022-12-17T06:46:49;-2.10;99.90
5200;DHT22;2619;47.868;11.892;2022-12-17T06:49:33;-2.10;99.90
5200;DHT22;2619;47.868;11.892;2022-12-17T06:52:17;-2.10;99.90
5200;DHT22;2619;47.868;11.892;2022-12-17T06:55:01;-2.10;99.90
5200;DHT22;2619;47.868;11.892;2022-12-17T06:57:45;-2.20;99.90
5200;DHT22;2619;47.868;11.892;2022-12-17T07:00:29;-2.10;99.90
5200;DHT22;2619;47.868;11.892;2022-12-17T07:03:13;-2.10;99.90
5200;DHT22;2619;47.868;11.892;2022-12-17T07:06:00;-2.10;99.90
5200;DHT22;2619;47.868;11.892;2022-12-17T07:08:45;-2.10;99.90
5200;DHT22;2619;47.868;11.892;2022-12-17T07:11:29;-2.10;99.90
5200;DHT22;2619;47.868;11.892;2022-12-17T07:14:13;-2.10;99.90
5200;DHT22;2619;47.868;11.892;2022-12-17T07:16:57;-2.20;99.90
5200;DHT22;2619;47.868;11.892;2022-12-17T07:19:41;-2.30;99.90
5200;DHT22;2619;47.868;11.892;2022-12-17T07:22:25;-2.30;99.90
5200;DHT22;2619;47.868;11.892;2022-12-17T07:25:09;-2.30;99.90
5200;DHT22;2619;47.868;11.892;2022-12-17T07:27:54;-2.30;99.90
5200;DHT22;2619;47.868;11.892;2022-12-17T07:30:39;-2.30;99.90
5200;DHT22;2619;47.868;11.892;2022-12-17T07:33:24;-2.40;99.90
5200;DHT22;2619;47.868;11.892;2022-12-17T07:36:08;-2.40;99.90
5200;DHT22;2619;47.868;11.892;2022-12-17T07:40:40;-2.40;99.90
5200;DHT22;2619;47.868;11.892;2022-12-17T07:43:24;-2.30;99.90
5200;DHT22;2619;47.868;11.892;2022-12-17T07:46:08;-2.30;99.90
5200;DHT22;2619;47.868;11.892;2022-12-17T07:48:52;-2.30;99.90
5200;DHT22;2619;47.868;11.892;2022-12-17T07:51:37;-2.30;99.90
5200;DHT22;2619;47.868;11.892;2022-12-17T07:54:21;-2.30;99.90
5200;DHT22;2619;47.868;11.892;2022-12-17T07:57:05;-2.40;99.90
5200;DHT22;2619;47.868;11.892;2022-12-17T07:59:49;-2.30;99.90
5200;DHT22;2619;47.868;11.892;2022-12-17T08:02:33;-2.30;99.90
5200;DHT22;2619;47.868;11.892;2022-12-17T08:05:17;-2.30;99.90
5200;DHT22;2619;47.868;11.892;2022-12-17T08:08:08;-2.30;99.90
5200;DHT22;2619;47.868;11.892;2022-12-17T08:10:53;-2.30;99.90
5200;DHT22;2619;47.868;11.892;2022-12-17T08:13:37;-2.30;99.90
5200;DHT22;2619;47.868;11.892;2022-12-17T08:16:21;-2.20;99.90
5200;DHT22;2619;47.868;11.892;2022-12-17T08:19:05;-2.10;99.90
5200;DHT22;2619;47.868;11.892;2022-12-17T08:21:49;-2.00;99.90
5200;DHT22;2619;47.868;11.892;2022-12-17T08:24:33;-2.00;99.90
5200;DHT22;2619;47.868;11.892;2022-12-17T08:27:17;-1.80;99.90
5200;DHT22;2619;47.868;11.892;2022-12-17T08:30:02;-1.70;99.90
5200;DHT22;2619;47.868;11.892;2022-12-17T08:32:46;-1.50;99.90
5200;DHT22;2619;47.868;11.892;2022-12-17T08:35:30;-1.40;99.90
5200;DHT22;2619;47.868;11.892;2022-12-17T08:38:14;-1.40;99.90
5200;DHT22;2619;47.868;11.892;2022-12-17T08:41:01;-1.50;99.90
5200;DHT22;2619;47.868;11.892;2022-12-17T08:43:45;-1.70;99.90
5200;DHT22;2619;47.868;11.892;2022-12-17T08:46:29;-1.80;99.90
5200;DHT22;2619;47.868;11.892;2022-12-17T08:49:15;-1.90;99.90
5200;DHT22;2619;47.868;11.892;2022-12-17T08:51:59;-2.00;99.90
5200;DHT22;2619;47.868;11.892;2022-12-17T08:54:43;-2.20;99.90
5200;DHT22;2619;47.868;11.892;2022-12-17T08:57:28;-2.50;99.90
5200;DHT22;2619;47.868;11.892;2022-12-17T09:00:12;-2.60;99.90
5200;DHT22;2619;47.868;11.892;2022-12-17T09:02:57;-2.90;99.90
5200;DHT22;2619;47.868;11.892;2022-12-17T09:05:42;-3.10;99.90
5200;DHT22;2619;47.868;11.892;2022-12-17T09:08:26;-3.20;99.90
5200;DHT22;2619;47.868;11.892;2022-12-17T09:11:11;-3.30;99.90
5200;DHT22;2619;47.868;11.892;2022-12-17T09:13:55;-3.20;99.90
5200;DHT22;2619;47.868;11.892;2022-12-17T09:16:39;-3.20;99.90
5200;DHT22;2619;47.868;11.892;2022-12-17T09:19:23;-3.20;99.90
5200;DHT22;2619;47.868;11.892;2022-12-17T09:22:07;-3.10;99.90
5200;DHT22;2619;47.868;11.892;2022-12-17T09:24:51;-2.90;99.90
5200;DHT22;2619;47.868;11.892;2022-12-17T09:27:35;-2.70;99.90
5200;DHT22;2619;47.868;11.892;2022-12-17T09:30:19;-2.60;99.90
5200;DHT22;2619;47.868;11.892;2022-12-17T09:33:03;-2.60;99.90
5200;DHT22;2619;47.868;11.892;2022-12-17T09:35:47;-2.50;99.90
5200;DHT22;2619;47.868;11.892;2022-12-17T09:38:31;-2.40;99.90
5200;DHT22;2619;47.868;11.892;2022-12-17T09:41:26;-2.30;99.90
5200;DHT22;2619;47.868;11.892;2022-12-17T09:49:51;-2.10;99.90
5200;DHT22;2619;47.868;11.892;2022-12-17T09:52:38;-1.90;99.90
5200;DHT22;2619;47.868;11.892;2022-12-17T09:55:31;-1.80;99.90
5200;DHT22;2619;47.868;11.892;2022-12-17T09:58:22;-1.90;99.90
5200;DHT22;2619;47.868;11.892;2022-12-17T10:01:24;-1.70;99.90
5200;DHT22;2619;47.868;11.892;2022-12-17T10:07:23;-1.60;99.90
5200;DHT22;2619;47.868;11.892;2022-12-17T10:13:10;-1.40;99.90
5200;DHT22;2619;47.868;11.892;2022-12-17T10:15:54;-1.40;99.90
5200;DHT22;2619;47.868;11.892;2022-12-17T10:18:38;-1.40;99.90
5200;DHT22;2619;47.868;11.892;2022-12-17T10:21:22;-1.30;99.90
5200;DHT22;2619;47.868;11.892;2022-12-17T10:24:07;-1.20;99.90
5200;DHT22;2619;47.868;11.892;2022-12-17T10:26:52;-1.10;99.90
5200;DHT22;2619;47.868;11.892;2022-12-17T10:29:36;-1.00;99.90
5200;DHT22;2619;47.868;11.892;2022-12-17T10:32:24;-0.90;99.90
5200;DHT22;2619;47.868;11.892;2022-12-17T10:35:23;-0.90;99.90
5200;DHT22;2619;47.868;11.892;2022-12-17T10:38:25;-0.80;99.90
5200;DHT22;2619;47.868;11.892;2022-12-17T10:41:25;-0.80;99.90
5200;DHT22;2619;47.868;11.892;2022-12-17T10:44:28;-0.80;99.90
5200;DHT22;2619;47.868;11.892;2022-12-17T10:47:21;-0.70;99.90
5200;DHT22;2619;47.868;11.892;2022-12-17T10:52:56;-0.60;99.90
5200;DHT22;2619;47.868;11.892;2022-12-17T10:56:15;-0.60;99.90
5200;DHT22;2619;47.868;11.892;2022-12-17T10:59:10;-0.60;99.90
5200;DHT22;2619;47.868;11.892;2022-12-17T11:01:58;-0.80;99.90
5200;DHT22;2619;47.868;11.892;2022-12-17T11:04:52;-0.70;99.90
5200;DHT22;2619;47.868;11.892;2022-12-17T11:07:40;-0.80;99.90
5200;DHT22;2619;47.868;11.892;2022-12-17T11:10:28;-0.90;99.90
5200;DHT22;2619;47.868;11.892;2022-12-17T11:13:35;-1.00;99.90
5200;DHT22;2619;47.868;11.892;2022-12-17T11:16:33;-1.00;99.90
5200;DHT22;2619;47.868;11.892;2022-12-17T11:19:47;-1.00;99.90
5200;DHT22;2619;47.868;11.892;2022-12-17T11:22:49;-1.20;99.90
5200;DHT22;2619;47.868;11.892;2022-12-17T11:25:55;-1.10;99.90
5200;DHT22;2619;47.868;11.892;2022-12-17T11:28:41;-1.20;99.90
5200;DHT22;2619;47.868;11.892;2022-12-17T11:40:56;-1.60;99.90
5200;DHT22;2619;47.868;11.892;2022-12-17T11:44:22;-1.60;99.90
5200;DHT22;2619;47.868;11.892;2022-12-17T11:50:24;-1.60;99.90
5200;DHT22;2619;47.868;11.892;2022-12-17T11:53:22;-1.50;99.90
5200;DHT22;2619;47.868;11.892;2022-12-17T11:56:23;-1.50;99.90
5200;DHT22;2619;47.868;11.892;2022-12-17T11:59:29;-1.60;99.90
5200;DHT22;2619;47.868;11.892;2022-12-17T12:02:31;-1.50;99.90
5200;DHT22;2619;47.868;11.892;2022-12-17T12:08:28;-1.30;99.90
5200;DHT22;2619;47.868;11.892;2022-12-17T12:11:30;-1.30;99.90
5200;DHT22;2619;47.868;11.892;2022-12-17T12:17:45;-1.40;99.90
5200;DHT22;2619;47.868;11.892;2022-12-17T12:32:36;-1.50;99.90
5200;DHT22;2619;47.868;11.892;2022-12-17T12:35:25;-1.50;99.90
5200;DHT22;2619;47.868;11.892;2022-12-17T12:38:21;-1.50;99.90
5200;DHT22;2619;47.868;11.892;2022-12-17T12:48:04;-1.40;99.90
5200;DHT22;2619;47.868;11.892;2022-12-17T12:54:15;-0.80;99.90
5200;DHT22;2619;47.868;11.892;2022-12-17T12:57:03;-0.60;99.90
5200;DHT22;2619;47.868;11.892;2022-12-17T12:59:51;-0.40;99.90
5200;DHT22;2619;47.868;11.892;2022-12-17T13:02:40;-0.30;99.90
5200;DHT22;2619;47.868;11.892;2022-12-17T13:05:36;-0.10;99.90
5200;DHT22;2619;47.868;11.892;2022-12-17T13:08:23;0.00;99.90
5200;DHT22;2619;47.868;11.892;2022-12-17T13:10:51;0.10;99.90
5200;DHT22;2619;47.868;11.892;2022-12-17T13:15:47;0.30;99.90
5200;DHT22;2619;47.868;11.892;2022-12-17T13:18:35;0.40;99.90
5200;DHT22;2619;47.868;11.892;2022-12-17T13:23:36;0.50;99.90
5200;DHT22;2619;47.868;11.892;2022-12-17T13:29:28;0.50;99.90
5200;DHT22;2619;47.868;11.892;2022-12-17T13:40:04;0.30;99.90
5200;DHT22;2619;47.868;11.892;2022-12-17T13:42:36;0.20;99.90
5200;DHT22;2619;47.868;11.892;2022-12-17T13:45:03;0.10;99.90
5200;DHT22;2619;47.868;11.892;2022-12-17T13:47:33;0.10;99.90
5200;DHT22;2619;47.868;11.892;2022-12-17T13:50:02;0.10;99.90
5200;DHT22;2619;47.868;11.892;2022-12-17T13:52:28;0.00;99.90
5200;DHT22;2619;47.868;11.892;2022-12-17T13:55:09;-0.10;99.90
5200;DHT22;2619;47.868;11.892;2022-12-17T13:57:36;-0.20;99.90
5200;DHT22;2619;47.868;11.892;2022-12-17T14:00:03;-0.20;99.90
5200;DHT22;2619;47.868;11.892;2022-12-17T14:02:34;-0.20;99.90
5200;DHT22;2619;47.868;11.892;2022-12-17T14:05:03;-0.20;99.90
5200;DHT22;2619;47.868;11.892;2022-12-17T14:07:29;-0.10;99.90
5200;DHT22;2619;47.868;11.892;2022-12-17T14:09:57;-0.10;99.90
5200;DHT22;2619;47.868;11.892;2022-12-17T14:12:25;-0.10;99.90
5200;DHT22;2619;47.868;11.892;2022-12-17T14:14:55;-0.30;99.90
5200;DHT22;2619;47.868;11.892;2022-12-17T14:17:25;-0.40;99.90
5200;DHT22;2619;47.868;11.892;2022-12-17T14:19:57;-0.40;99.90
5200;DHT22;2619;47.868;11.892;2022-12-17T14:22:36;-0.60;99.90
5200;DHT22;2619;47.868;11.892;2022-12-17T14:25:04;-0.70;99.90
5200;DHT22;2619;47.868;11.892;2022-12-17T14:27:35;-0.80;99.90
5200;DHT22;2619;47.868;11.892;2022-12-17T14:30:18;-0.90;99.90
5200;DHT22;2619;47.868;11.892;2022-12-17T14:32:44;-0.80;99.90
5200;DHT22;2619;47.868;11.892;2022-12-17T14:35:30;-0.90;99.90
5200;DHT22;2619;47.868;11.892;2022-12-17T14:37:58;-0.80;99.90
5200;DHT22;2619;47.868;11.892;2022-12-17T14:40:24;-0.80;99.90
5200;DHT22;2619;47.868;11.892;2022-12-17T14:42:52;-0.80;99.90
5200;DHT22;2619;47.868;11.892;2022-12-17T14:45:24;-0.90;99.90
5200;DHT22;2619;47.868;11.892;2022-12-17T14:48:00;-0.90;99.90
5200;DHT22;2619;47.868;11.892;2022-12-17T14:50:30;-0.90;99.90
5200;DHT22;2619;47.868;11.892;2022-12-17T14:53:01;-0.90;99.90
5200;DHT22;2619;47.868;11.892;2022-12-17T14:58:18;-0.90;99.90
5200;DHT22;2619;47.868;11.892;2022-12-17T15:01:03;-0.90;99.90
5200;DHT22;2619;47.868;11.892;2022-12-17T15:03:32;-0.90;99.90
5200;DHT22;2619;47.868;11.892;2022-12-17T15:08:24;-1.20;99.90
5200;DHT22;2619;47.868;11.892;2022-12-17T15:10:49;-1.20;99.90
5200;DHT22;2619;47.868;11.892;2022-12-17T15:13:15;-1.20;99.90
5200;DHT22;2619;47.868;11.892;2022-12-17T15:15:41;-1.40;99.90
5200;DHT22;2619;47.868;11.892;2022-12-17T15:18:06;-1.50;99.90
5200;DHT22;2619;47.868;11.892;2022-12-17T15:20:32;-1.40;99.90
5200;DHT22;2619;47.868;11.892;2022-12-17T15:22:57;-1.50;99.90
5200;DHT22;2619;47.868;11.892;2022-12-17T15:25:24;-1.50;99.90
5200;DHT22;2619;47.868;11.892;2022-12-17T15:27:50;-1.50;99.90
5200;DHT22;2619;47.868;11.892;2022-12-17T15:30:16;-1.60;99.90
5200;DHT22;2619;47.868;11.892;2022-12-17T15:32:43;-1.60;99.90
5200;DHT22;2619;47.868;11.892;2022-12-17T15:35:10;-1.60;99.90
5200;DHT22;2619;47.868;11.892;2022-12-17T15:37:36;-1.70;99.90
5200;DHT22;2619;47.868;11.892;2022-12-17T15:40:03;-1.80;99.90
5200;DHT22;2619;47.868;11.892;2022-12-17T15:42:29;-1.80;99.90
5200;DHT22;2619;47.868;11.892;2022-12-17T15:45:13;-1.80;99.90
5200;DHT22;2619;47.868;11.892;2022-12-17T15:47:39;-1.80;99.90
5200;DHT22;2619;47.868;11.892;2022-12-17T15:50:05;-1.80;99.90
5200;DHT22;2619;47.868;11.892;2022-12-17T15:52:30;-1.90;99.90
5200;DHT22;2619;47.868;11.892;2022-12-17T15:54:57;-1.90;99.90
5200;DHT22;2619;47.868;11.892;2022-12-17T15:57:22;-2.00;99.90
5200;DHT22;2619;47.868;11.892;2022-12-17T15:59:49;-2.00;99.90
5200;DHT22;2619;47.868;11.892;2022-12-17T16:02:15;-2.10;99.90
5200;DHT22;2619;47.868;11.892;2022-12-17T16:04:41;-2.00;99.90
5200;DHT22;2619;47.868;11.892;2022-12-17T16:07:06;-2.00;99.90
5200;DHT22;2619;47.868;11.892;2022-12-17T16:09:32;-2.00;99.90
5200;DHT22;2619;47.868;11.892;2022-12-17T16:11:57;-2.10;99.90
5200;DHT22;2619;47.868;11.892;2022-12-17T16:14:23;-2.10;99.90
5200;DHT22;2619;47.868;11.892;2022-12-17T16:16:49;-2.30;99.90
5200;DHT22;2619;47.868;11.892;2022-12-17T16:19:15;-2.30;99.90
5200;DHT22;2619;47.868;11.892;2022-12-17T16:21:41;-2.30;99.90
5200;DHT22;2619;47.868;11.892;2022-12-17T16:24:06;-2.30;99.90
5200;DHT22;2619;47.868;11.892;2022-12-17T16:26:32;-2.30;99.90
5200;DHT22;2619;47.868;11.892;2022-12-17T16:28:58;-2.30;99.90
5200;DHT22;2619;47.868;11.892;2022-12-17T16:31:24;-2.30;99.90
5200;DHT22;2619;47.868;11.892;2022-12-17T16:33:50;-2.30;99.90
5200;DHT22;2619;47.868;11.892;2022-12-17T16:36:18;-2.30;99.90
5200;DHT22;2619;47.868;11.892;2022-12-17T16:38:49;-2.30;99.90
5200;DHT22;2619;47.868;11.892;2022-12-17T16:41:15;-2.30;99.90
5200;DHT22;2619;47.868;11.892;2022-12-17T16:43:41;-2.30;99.90
5200;DHT22;2619;47.868;11.892;2022-12-17T16:46:37;-2.20;99.90
5200;DHT22;2619;47.868;11.892;2022-12-17T16:49:15;-2.40;99.90
5200;DHT22;2619;47.868;11.892;2022-12-17T16:51:43;-2.40;99.90
5200;DHT22;2619;47.868;11.892;2022-12-17T16:54:15;-2.40;99.90
5200;DHT22;2619;47.868;11.892;2022-12-17T16:56:42;-2.40;99.90
5200;DHT22;2619;47.868;11.892;2022-12-17T16:59:09;-2.40;99.90
5200;DHT22;2619;47.868;11.892;2022-12-17T17:01:36;-2.40;99.90
5200;DHT22;2619;47.868;11.892;2022-12-17T17:04:03;-2.40;99.90
5200;DHT22;2619;47.868;11.892;2022-12-17T17:06:28;-2.50;99.90
5200;DHT22;2619;47.868;11.892;2022-12-17T17:08:54;-2.40;99.90
5200;DHT22;2619;47.868;11.892;2022-12-17T17:11:24;-2.40;99.90
5200;DHT22;2619;47.868;11.892;2022-12-17T17:13:51;-2.50;99.90
5200;DHT22;2619;47.868;11.892;2022-12-17T17:16:20;-2.50;99.90
5200;DHT22;2619;47.868;11.892;2022-12-17T17:18:46;-2.50;99.90
5200;DHT22;2619;47.868;11.892;2022-12-17T17:23:47;-2.60;99.90
5200;DHT22;2619;47.868;11.892;2022-12-17T17:26:14;-2.70;99.90
5200;DHT22;2619;47.868;11.892;2022-12-17T17:28:40;-2.70;99.90
5200;DHT22;2619;47.868;11.892;2022-12-17T17:31:09;-2.70;99.90
5200;DHT22;2619;47.868;11.892;2022-12-17T17:33:37;-2.80;99.90
5200;DHT22;2619;47.868;11.892;2022-12-17T17:36:32;-2.80;99.90
5200;DHT22;2619;47.868;11.892;2022-12-17T17:38:58;-2.90;99.90
5200;DHT22;2619;47.868;11.892;2022-12-17T17:41:27;-2.90;99.90
5200;DHT22;2619;47.868;11.892;2022-12-17T17:43:55;-2.90;99.90
5200;DHT22;2619;47.868;11.892;2022-12-17T17:46:21;-2.80;99.90
5200;DHT22;2619;47.868;11.892;2022-12-17T17:48:47;-2.80;99.90
5200;DHT22;2619;47.868;11.892;2022-12-17T17:51:19;-2.80;99.90
5200;DHT22;2619;47.868;11.892;2022-12-17T17:53:49;-2.70;99.90
5200;DHT22;2619;47.868;11.892;2022-12-17T17:56:18;-2.80;99.90
5200;DHT22;2619;47.868;11.892;2022-12-17T17:58:52;-2.80;99.90
5200;DHT22;2619;47.868;11.892;2022-12-17T18:01:23;-2.80;99.90
5200;DHT22;2619;47.868;11.892;2022-12-17T18:03:50;-2.80;99.90
5200;DHT22;2619;47.868;11.892;2022-12-17T18:06:16;-2.80;99.90
5200;DHT22;2619;47.868;11.892;2022-12-17T18:08:42;-2.70;99.90
5200;DHT22;2619;47.868;11.892;2022-12-17T18:11:10;-2.70;99.90
5200;DHT22;2619;47.868;11.892;2022-12-17T18:13:35;-2.70;99.90
5200;DHT22;2619;47.868;11.892;2022-12-17T18:16:43;-2.70;99.90
5200;DHT22;2619;47.868;11.892;2022-12-17T18:19:22;-2.80;99.90
5200;DHT22;2619;47.868;11.892;2022-12-17T18:21:48;-2.80;99.90
5200;DHT22;2619;47.868;11.892;2022-12-17T18:24:19;-2.80;99.90
5200;DHT22;2619;47.868;11.892;2022-12-17T18:26:49;-2.70;99.90
5200;DHT22;2619;47.868;11.892;2022-12-17T18:29:18;-2.80;99.90
5200;DHT22;2619;47.868;11.892;2022-12-17T18:31:44;-2.80;99.90
5200;DHT22;2619;47.868;11.892;2022-12-17T18:34:14;-2.80;99.90
5200;DHT22;2619;47.868;11.892;2022-12-17T18:36:42;-2.80;99.90
5200;DHT22;2619;47.868;11.892;2022-12-17T18:39:18;-2.90;99.90
5200;DHT22;2619;47.868;11.892;2022-12-17T18:41:44;-3.00;99.90
5200;DHT22;2619;47.868;11.892;2022-12-17T18:44:30;-3.10;99.90
5200;DHT22;2619;47.868;11.892;2022-12-17T18:46:56;-3.10;99.90